createdAt,value
2017-11-24T00:01:19.297Z,9.20
2017-11-24T00:03:46.804Z,8.60
2017-11-24T00:06:14.354Z,8.67
2017-11-24T00:08:41.908Z,8.93
2017-11-24T00:11:09.400Z,7.67
2017-11-24T00:13:36.941Z,9.60
2017-11-24T00:16:04.441Z,6.40
2017-11-24T00:18:31.950Z,6.07
2017-11-24T00:20:59.501Z,7.83
2017-11-24T00:23:26.985Z,5.77
2017-11-24T00:25:54.471Z,7.00
2017-11-24T00:28:21.996Z,6.70
2017-11-24T00:30:49.489Z,6.10
2017-11-24T00:33:17.016Z,6.70
2017-11-24T00:35:44.511Z,6.10
2017-11-24T00:38:12.003Z,6.50
2017-11-24T00:40:39.559Z,7.43
2017-11-24T00:43:07.056Z,8.67
2017-11-24T00:45:34.557Z,8.20
2017-11-24T00:48:02.092Z,9.73
2017-11-24T00:50:29.591Z,10.90
2017-11-24T00:52:57.090Z,10.00
2017-11-24T00:55:24.700Z,9.93
2017-11-24T00:57:52.204Z,10.50
2017-11-24T01:00:19.728Z,8.57
2017-11-24T01:02:47.246Z,11.60
2017-11-24T01:05:14.774Z,11.47
2017-11-24T01:07:42.298Z,16.00
2017-11-24T01:10:09.863Z,13.00
2017-11-24T01:12:37.401Z,9.10
2017-11-24T01:15:04.923Z,8.10
2017-11-24T01:17:32.413Z,8.00
2017-11-24T01:19:59.932Z,10.07
2017-11-24T01:22:27.462Z,8.63
2017-11-24T01:24:54.958Z,7.20
2017-11-24T01:27:22.493Z,6.70
2017-11-24T01:29:49.980Z,7.13
2017-11-24T01:32:17.582Z,11.40
2017-11-24T01:34:45.140Z,13.10
2017-11-24T01:37:12.715Z,13.97
2017-11-24T01:39:40.214Z,15.30
2017-11-24T01:42:07.736Z,9.50
2017-11-24T01:44:35.277Z,9.93
2017-11-24T01:47:02.777Z,7.80
2017-11-24T01:49:30.295Z,6.87
2017-11-24T01:51:57.812Z,5.87
2017-11-24T01:54:25.399Z,6.10
2017-11-24T01:56:52.890Z,5.83
2017-11-24T01:59:20.754Z,5.50
2017-11-24T02:01:48.260Z,7.17
2017-11-24T02:04:15.759Z,6.03
2017-11-24T02:06:43.290Z,6.27
2017-11-24T02:09:10.814Z,7.30
2017-11-24T02:11:38.311Z,7.10
2017-11-24T02:14:05.826Z,7.83
2017-11-24T02:16:33.347Z,6.57
2017-11-24T02:19:00.854Z,6.90
2017-11-24T02:21:28.353Z,8.93
2017-11-24T02:23:55.917Z,7.80
2017-11-24T02:26:23.425Z,6.63
2017-11-24T02:28:50.965Z,5.90
2017-11-24T02:31:18.461Z,5.63
2017-11-24T02:33:45.969Z,6.97
2017-11-24T02:36:13.510Z,5.80
2017-11-24T02:38:41.011Z,5.40
2017-11-24T02:41:08.512Z,4.63
2017-11-24T02:43:36.029Z,6.47
2017-11-24T02:46:03.545Z,10.03
2017-11-24T02:48:31.080Z,12.97
2017-11-24T02:50:58.598Z,14.83
2017-11-24T02:53:26.156Z,9.73
2017-11-24T02:55:53.690Z,8.33
2017-11-24T02:58:21.206Z,7.40
2017-11-24T03:00:48.707Z,6.73
2017-11-24T03:03:16.230Z,8.50
2017-11-24T03:05:43.721Z,7.70
2017-11-24T03:08:11.263Z,6.87
2017-11-24T03:10:38.791Z,7.00
2017-11-24T03:13:06.324Z,6.63
2017-11-24T03:15:33.861Z,6.10
2017-11-24T03:20:35.167Z,7.60
2017-11-24T03:23:02.652Z,5.70
2017-11-24T03:25:30.312Z,7.10
2017-11-24T03:27:57.839Z,6.30
2017-11-24T03:30:25.374Z,6.37
2017-11-24T03:32:52.878Z,5.70
2017-11-24T03:35:20.463Z,5.77
2017-11-24T03:37:47.988Z,6.37
2017-11-24T03:40:15.493Z,6.30
2017-11-24T03:42:43.003Z,5.40
2017-11-24T03:45:10.535Z,5.93
2017-11-24T03:47:38.061Z,5.70
2017-11-24T03:50:05.554Z,5.43
2017-11-24T03:52:33.087Z,5.77
2017-11-24T03:55:00.584Z,5.73
2017-11-24T03:57:28.084Z,6.60
2017-11-24T03:59:55.588Z,5.97
2017-11-24T04:02:23.099Z,5.93
2017-11-24T04:04:50.680Z,6.67
2017-11-24T04:07:18.206Z,5.00
2017-11-24T04:09:45.697Z,5.90
2017-11-24T04:12:13.185Z,5.90
2017-11-24T04:14:40.705Z,6.30
2017-11-24T04:17:08.206Z,5.87
2017-11-24T04:19:35.712Z,6.67
2017-11-24T04:22:03.386Z,6.47
2017-11-24T04:24:30.896Z,6.13
2017-11-24T04:26:58.507Z,5.77
2017-11-24T04:29:26.031Z,6.33
2017-11-24T04:31:53.526Z,5.90
2017-11-24T04:34:21.017Z,7.00
2017-11-24T04:36:48.536Z,7.00
2017-11-24T04:39:16.045Z,7.10
2017-11-24T04:41:43.544Z,6.40
2017-11-24T04:44:11.198Z,6.17
2017-11-24T04:46:38.696Z,6.77
2017-11-24T04:49:06.196Z,6.63
2017-11-24T04:51:33.717Z,6.60
2017-11-24T04:54:01.248Z,9.53
2017-11-24T04:56:28.745Z,8.10
2017-11-24T04:58:56.244Z,9.33
2017-11-24T05:01:23.773Z,7.93
2017-11-24T05:03:51.304Z,6.93
2017-11-24T05:06:18.793Z,8.43
2017-11-24T05:08:46.333Z,7.30
2017-11-24T05:11:13.866Z,8.53
2017-11-24T05:13:41.363Z,7.67
2017-11-24T05:16:08.906Z,8.87
2017-11-24T05:18:36.402Z,8.27
2017-11-24T05:21:03.913Z,8.50
2017-11-24T05:23:31.528Z,9.27
2017-11-24T05:25:59.111Z,8.80
2017-11-24T05:28:26.667Z,9.47
2017-11-24T05:30:54.192Z,14.63
2017-11-24T05:33:21.768Z,12.97
2017-11-24T05:35:49.265Z,27.97
2017-11-24T05:38:16.792Z,8.37
2017-11-24T05:40:44.324Z,7.93
2017-11-24T05:43:11.825Z,7.13
2017-11-24T05:45:39.308Z,6.20
2017-11-24T05:48:06.850Z,6.90
2017-11-24T05:50:34.340Z,6.30
2017-11-24T05:53:01.853Z,5.70
2017-11-24T05:55:29.382Z,6.70
2017-11-24T05:57:56.883Z,6.10
2017-11-24T06:00:25.058Z,6.83
2017-11-24T06:02:52.610Z,7.13
2017-11-24T06:05:20.118Z,8.40
2017-11-24T06:07:47.631Z,5.70
2017-11-24T06:10:15.177Z,13.40
2017-11-24T06:12:42.679Z,9.90
2017-11-24T06:15:10.180Z,8.23
2017-11-24T06:17:37.729Z,11.40
2017-11-24T06:20:05.232Z,8.90
2017-11-24T06:22:32.724Z,6.70
2017-11-24T06:25:00.265Z,7.13
2017-11-24T06:27:27.765Z,6.90
2017-11-24T06:29:55.259Z,6.63
2017-11-24T06:32:22.801Z,7.30
2017-11-24T06:34:50.316Z,7.73
2017-11-24T06:37:17.817Z,8.13
2017-11-24T06:39:45.354Z,7.57
2017-11-24T06:42:12.852Z,6.43
2017-11-24T06:44:40.342Z,7.03
2017-11-24T06:47:07.865Z,6.80
2017-11-24T06:49:35.393Z,6.97
2017-11-24T06:52:02.888Z,7.43
2017-11-24T06:54:30.419Z,6.73
2017-11-24T06:56:58.183Z,7.10
2017-11-24T06:59:25.679Z,7.43
2017-11-24T07:01:53.164Z,6.60
2017-11-24T07:04:20.694Z,7.50
2017-11-24T07:06:48.184Z,7.10
2017-11-24T07:09:15.676Z,6.90
2017-11-24T07:11:43.244Z,6.17
2017-11-24T07:14:10.729Z,5.60
2017-11-24T07:16:38.261Z,6.20
2017-11-24T07:19:05.741Z,5.50
2017-11-24T07:21:33.232Z,6.10
2017-11-24T07:24:00.764Z,6.03
2017-11-24T07:26:28.253Z,5.50
2017-11-24T07:28:55.753Z,6.40
2017-11-24T07:31:23.270Z,6.20
2017-11-24T07:33:50.761Z,6.80
2017-11-24T07:36:18.326Z,6.50
2017-11-24T07:38:45.835Z,6.40
2017-11-24T07:41:13.332Z,6.53
2017-11-24T07:43:40.880Z,5.67
2017-11-24T07:46:08.376Z,6.17
2017-11-24T07:48:35.870Z,6.40
2017-11-24T07:51:03.425Z,5.87
2017-11-24T07:53:30.922Z,7.03
2017-11-24T07:55:58.414Z,7.50
2017-11-24T07:58:25.963Z,6.57
2017-11-24T08:00:53.585Z,6.20
2017-11-24T08:03:21.088Z,7.47
2017-11-24T08:05:48.604Z,7.60
2017-11-24T08:08:16.144Z,6.67
2017-11-24T08:10:43.634Z,6.27
2017-11-24T08:13:11.127Z,5.53
2017-11-24T08:15:38.650Z,5.93
2017-11-24T08:18:06.154Z,5.40
2017-11-24T08:20:33.758Z,5.30
2017-11-24T08:23:01.250Z,6.17
2017-11-24T08:25:28.746Z,6.50
2017-11-24T08:27:56.278Z,5.30
2017-11-24T08:30:23.769Z,5.37
2017-11-24T08:32:51.256Z,7.23
2017-11-24T08:35:18.793Z,10.20
2017-11-24T08:37:46.309Z,5.77
2017-11-24T08:40:13.810Z,6.03
2017-11-24T08:42:41.330Z,6.00
2017-11-24T08:45:08.828Z,5.80
2017-11-24T08:47:41.859Z,6.37
2017-11-24T08:50:09.348Z,5.93
2017-11-24T08:52:36.881Z,5.50
2017-11-24T08:55:04.392Z,5.70
2017-11-24T08:57:31.897Z,5.20
2017-11-24T08:59:59.413Z,5.43
2017-11-24T09:02:26.900Z,4.97
2017-11-24T09:04:54.413Z,5.60
2017-11-24T09:07:21.898Z,5.87
2017-11-24T09:09:49.427Z,5.67
2017-11-24T09:12:16.922Z,4.70
2017-11-24T09:14:44.408Z,5.43
2017-11-24T09:17:11.940Z,5.80
2017-11-24T09:19:39.440Z,7.37
2017-11-24T09:22:06.964Z,4.63
2017-11-24T09:24:34.510Z,5.00
2017-11-24T09:27:02.004Z,5.77
2017-11-24T09:29:29.496Z,4.73
2017-11-24T09:31:57.015Z,5.20
2017-11-24T09:34:24.515Z,6.33
2017-11-24T09:36:52.009Z,5.10
2017-11-24T09:39:19.528Z,5.77
2017-11-24T09:41:47.071Z,4.50
2017-11-24T09:44:14.565Z,5.17
2017-11-24T09:46:42.159Z,5.93
2017-11-24T09:49:09.685Z,5.90
2017-11-24T09:51:37.186Z,5.33
2017-11-24T09:54:04.672Z,4.10
2017-11-24T09:56:32.207Z,5.67
2017-11-24T09:58:59.693Z,4.83
2017-11-24T10:01:27.181Z,6.33
2017-11-24T10:03:54.738Z,5.93
2017-11-24T10:06:22.245Z,4.80
2017-11-24T10:08:49.741Z,5.13
2017-11-24T10:11:17.283Z,5.87
2017-11-24T10:13:44.844Z,7.03
2017-11-24T10:16:12.342Z,8.07
2017-11-24T10:18:39.866Z,4.90
2017-11-24T10:21:12.927Z,4.50
2017-11-24T10:23:40.542Z,4.17
2017-11-24T10:26:08.036Z,5.60
2017-11-24T10:28:35.537Z,4.47
2017-11-24T10:31:03.065Z,5.40
2017-11-24T10:33:30.561Z,4.80
2017-11-24T10:35:58.123Z,4.37
2017-11-24T10:38:25.669Z,4.90
2017-11-24T10:40:53.162Z,4.83
2017-11-24T10:43:20.657Z,5.30
2017-11-24T10:45:48.198Z,5.63
2017-11-24T10:48:15.687Z,5.40
2017-11-24T10:50:43.191Z,4.37
2017-11-24T10:53:10.728Z,7.20
2017-11-24T10:55:38.220Z,4.00
2017-11-24T10:58:05.716Z,4.20
2017-11-24T11:00:33.255Z,3.80
2017-11-24T11:03:00.765Z,3.60
2017-11-24T11:05:28.325Z,3.80
2017-11-24T11:07:55.885Z,4.70
2017-11-24T11:10:23.388Z,4.50
2017-11-24T11:12:50.880Z,6.80
2017-11-24T11:15:18.478Z,5.10
2017-11-24T11:17:45.968Z,3.77
2017-11-24T11:20:13.484Z,4.63
2017-11-24T11:22:41.016Z,5.70
2017-11-24T11:25:08.590Z,5.40
2017-11-24T11:27:36.073Z,4.93
2017-11-24T11:30:03.594Z,4.23
2017-11-24T11:32:31.124Z,5.03
2017-11-24T11:34:58.635Z,4.10
2017-11-24T11:37:26.133Z,4.40
2017-11-24T11:39:53.684Z,3.67
2017-11-24T11:42:21.160Z,4.20
2017-11-24T11:44:48.652Z,3.67
2017-11-24T11:47:16.199Z,4.33
2017-11-24T11:49:43.719Z,4.63
2017-11-24T11:52:11.229Z,3.93
2017-11-24T11:54:38.756Z,4.37
2017-11-24T11:57:06.266Z,8.97
2017-11-24T11:59:33.816Z,4.43
2017-11-24T12:02:01.309Z,4.97
2017-11-24T12:04:28.839Z,3.90
2017-11-24T12:06:56.364Z,3.97
2017-11-24T12:09:23.860Z,4.70
2017-11-24T12:11:51.353Z,4.40
2017-11-24T12:14:18.877Z,4.60
2017-11-24T12:16:46.368Z,4.67
2017-11-24T12:19:13.918Z,4.53
2017-11-24T12:21:41.439Z,4.07
2017-11-24T12:24:08.927Z,4.33
2017-11-24T12:26:36.451Z,5.20
2017-11-24T12:29:04.027Z,5.57
2017-11-24T12:31:31.525Z,3.67
2017-11-24T12:33:59.048Z,4.23
2017-11-24T12:36:26.528Z,4.30
2017-11-24T12:38:54.048Z,5.57
2017-11-24T12:41:21.573Z,4.80
2017-11-24T12:43:49.105Z,5.20
2017-11-24T12:46:16.635Z,4.20
2017-11-24T12:48:44.196Z,4.13
2017-11-24T12:51:11.726Z,4.90
2017-11-24T12:53:39.269Z,5.50
2017-11-24T12:56:06.777Z,6.40
2017-11-24T12:58:34.273Z,5.00
2017-11-24T13:01:01.814Z,6.13
2017-11-24T13:03:29.316Z,5.33
2017-11-24T13:05:56.808Z,4.93
2017-11-24T13:08:24.325Z,5.67
2017-11-24T13:10:51.841Z,4.87
2017-11-24T13:13:19.330Z,4.70
2017-11-24T13:15:46.818Z,4.40
2017-11-24T13:18:14.376Z,5.90
2017-11-24T13:20:41.869Z,3.93
2017-11-24T13:23:09.408Z,3.57
2017-11-24T13:25:36.977Z,4.00
2017-11-24T13:28:04.535Z,3.00
2017-11-24T13:30:32.072Z,4.13
2017-11-24T13:32:59.639Z,2.87
2017-11-24T13:35:27.134Z,2.70
2017-11-24T13:37:54.753Z,1.90
2017-11-24T13:40:22.245Z,3.50
2017-11-24T13:42:49.750Z,3.40
2017-11-24T13:45:17.284Z,4.60
2017-11-24T13:47:44.774Z,3.60
2017-11-24T13:50:12.265Z,3.47
2017-11-24T13:52:39.778Z,7.90
2017-11-24T13:55:07.273Z,6.50
2017-11-24T13:57:34.881Z,8.83
2017-11-24T14:00:02.389Z,6.93
2017-11-24T14:02:29.888Z,6.87
2017-11-24T14:04:57.414Z,4.97
2017-11-24T14:07:24.927Z,5.00
2017-11-24T14:09:52.435Z,3.93
2017-11-24T14:12:19.972Z,5.23
2017-11-24T14:14:47.465Z,4.37
2017-11-24T14:17:14.984Z,4.53
2017-11-24T14:19:42.509Z,4.70
2017-11-24T14:22:10.013Z,3.60
2017-11-24T14:24:37.528Z,4.60
2017-11-24T14:27:05.240Z,3.60
2017-11-24T14:29:32.723Z,3.40
2017-11-24T14:32:00.216Z,4.20
2017-11-24T14:34:27.739Z,4.47
2017-11-24T14:36:55.295Z,4.60
2017-11-24T14:39:22.785Z,5.70
2017-11-24T14:41:50.289Z,6.23
2017-11-24T14:44:17.845Z,6.50
2017-11-24T14:46:45.370Z,7.90
2017-11-24T14:49:12.867Z,6.87
2017-11-24T14:51:40.372Z,6.50
2017-11-24T14:54:07.960Z,6.40
2017-11-24T14:56:35.465Z,7.57
2017-11-24T14:59:02.968Z,8.13
2017-11-24T15:01:30.540Z,7.07
2017-11-24T15:03:58.033Z,5.40
2017-11-24T15:06:25.660Z,6.30
2017-11-24T15:08:53.154Z,5.83
2017-11-24T15:11:20.646Z,6.03
2017-11-24T15:13:48.186Z,4.93
2017-11-24T15:16:15.736Z,5.40
2017-11-24T15:18:43.237Z,7.03
2017-11-24T15:21:10.758Z,6.83
2017-11-24T15:23:38.272Z,5.40
2017-11-24T15:26:05.804Z,5.40
2017-11-24T15:28:33.292Z,7.67
2017-11-24T15:31:00.781Z,6.53
2017-11-24T15:33:28.326Z,4.90
2017-11-24T15:35:55.809Z,6.50
2017-11-24T15:38:23.301Z,5.70
2017-11-24T15:40:50.832Z,6.00
2017-11-24T15:43:18.338Z,5.50
2017-11-24T15:45:45.824Z,6.67
2017-11-24T15:48:13.364Z,6.00
2017-11-24T15:50:40.870Z,6.50
2017-11-24T15:53:08.375Z,5.70
2017-11-24T15:55:35.900Z,7.17
2017-11-24T15:58:03.399Z,5.40
2017-11-24T16:00:30.890Z,6.90
2017-11-24T16:02:58.419Z,6.20
2017-11-24T16:05:25.905Z,7.20
2017-11-24T16:07:53.393Z,6.23
2017-11-24T16:10:20.921Z,6.70
2017-11-24T16:12:48.415Z,18.57
2017-11-24T16:15:15.925Z,7.37
2017-11-24T16:17:43.468Z,7.30
2017-11-24T16:20:10.966Z,6.90
2017-11-24T16:22:38.461Z,10.47
2017-11-24T16:25:05.994Z,8.10
2017-11-24T16:27:33.490Z,7.03
2017-11-24T16:30:00.988Z,8.20
2017-11-24T16:32:28.511Z,6.20
2017-11-24T16:34:56.053Z,6.70
2017-11-24T16:37:23.545Z,7.03
2017-11-24T16:39:51.073Z,5.70
2017-11-24T16:42:18.570Z,7.93
2017-11-24T16:44:46.059Z,6.97
2017-11-24T16:47:13.950Z,5.60
2017-11-24T16:49:41.528Z,8.37
2017-11-24T16:52:09.018Z,9.67
2017-11-24T16:54:36.524Z,6.10
2017-11-24T16:57:04.016Z,8.50
2017-11-24T16:59:31.548Z,7.43
2017-11-24T17:01:59.120Z,7.53
2017-11-24T17:04:26.619Z,9.13
2017-11-24T17:06:54.148Z,9.17
2017-11-24T17:09:21.658Z,9.10
2017-11-24T17:11:49.151Z,8.63
2017-11-24T17:14:16.693Z,9.30
2017-11-24T17:16:45.072Z,7.83
2017-11-24T17:19:12.565Z,8.63
2017-11-24T17:21:40.107Z,8.67
2017-11-24T17:24:07.627Z,10.20
2017-11-24T17:26:35.118Z,10.03
2017-11-24T17:29:02.659Z,10.00
2017-11-24T17:31:30.152Z,11.60
2017-11-24T17:33:57.754Z,14.30
2017-11-24T17:36:25.304Z,9.67
2017-11-24T17:38:52.915Z,11.90
2017-11-24T17:41:20.413Z,12.13
2017-11-24T17:43:48.140Z,10.40
2017-11-24T17:46:15.637Z,11.53
2017-11-24T17:48:43.140Z,10.10
2017-11-24T17:51:10.698Z,9.40
2017-11-24T17:53:38.193Z,11.90
2017-11-24T17:56:05.708Z,11.53
2017-11-24T17:58:33.238Z,12.20
2017-11-24T18:01:00.787Z,11.10
2017-11-24T18:03:28.285Z,9.20
2017-11-24T18:05:55.812Z,8.40
2017-11-24T18:08:23.407Z,8.57
2017-11-24T18:10:50.913Z,8.17
2017-11-24T18:13:18.426Z,9.00
2017-11-24T18:15:46.011Z,8.60
2017-11-24T18:18:13.513Z,9.00
2017-11-24T18:20:41.123Z,8.80
2017-11-24T18:23:08.652Z,9.10
2017-11-24T18:25:36.141Z,8.10
2017-11-24T18:28:03.926Z,9.50
2017-11-24T18:30:31.523Z,10.10
2017-11-24T18:32:59.184Z,10.43
2017-11-24T18:35:26.891Z,9.97
2017-11-24T18:37:54.481Z,9.97
2017-11-24T18:40:22.115Z,11.40
2017-11-24T18:42:49.654Z,11.10
2017-11-24T18:45:17.189Z,11.80
2017-11-24T18:47:44.695Z,11.10
2017-11-24T18:50:12.558Z,10.40
2017-11-24T18:52:40.188Z,10.00
2017-11-24T18:55:07.716Z,13.47
2017-11-24T18:57:35.220Z,14.80
2017-11-24T19:00:02.995Z,16.53
2017-11-24T19:02:30.540Z,12.67
2017-11-24T19:04:58.180Z,15.53
2017-11-24T19:07:25.831Z,11.00
2017-11-24T19:09:53.342Z,37.33
2017-11-24T19:12:20.860Z,13.70
2017-11-24T19:14:48.398Z,46.13
2017-11-24T19:17:15.911Z,10.17
2017-11-24T19:19:43.406Z,15.70
2017-11-24T19:22:11.048Z,46.53
2017-11-24T19:24:38.679Z,14.87
2017-11-24T19:27:06.189Z,10.67
2017-11-24T19:29:33.782Z,10.73
2017-11-24T19:32:01.520Z,13.87
2017-11-24T19:34:29.041Z,12.27
2017-11-24T19:36:56.585Z,12.93
2017-11-24T19:39:24.201Z,13.70
2017-11-24T19:41:51.810Z,16.40
2017-11-24T19:44:19.383Z,22.10
2017-11-24T19:46:47.153Z,19.60
2017-11-24T19:49:14.663Z,13.87
2017-11-24T19:51:42.238Z,19.33
2017-11-24T19:54:09.739Z,17.87
2017-11-24T19:56:37.410Z,16.17
2017-11-24T19:59:05.000Z,18.27
2017-11-24T20:01:32.511Z,23.33
2017-11-24T20:04:00.309Z,21.20
2017-11-24T20:06:27.840Z,21.27
2017-11-24T20:08:55.382Z,23.07
2017-11-24T20:11:22.889Z,17.67
2017-11-24T20:13:50.453Z,18.13
2017-11-24T20:16:17.950Z,15.57
2017-11-24T20:18:45.544Z,16.50
2017-11-24T20:21:13.107Z,16.43
2017-11-24T20:23:40.608Z,19.00
2017-11-24T20:26:08.109Z,15.60
2017-11-24T20:28:36.466Z,17.97
2017-11-24T20:31:04.027Z,18.23
2017-11-24T20:33:31.534Z,23.67
2017-11-24T20:35:59.071Z,18.67
2017-11-24T20:38:26.595Z,21.50
2017-11-24T20:41:05.026Z,18.10
2017-11-24T20:43:33.244Z,19.67
2017-11-24T20:46:00.745Z,21.03
2017-11-24T20:48:28.294Z,21.77
2017-11-24T20:50:55.795Z,28.07
2017-11-24T20:53:23.291Z,21.13
2017-11-24T20:55:50.813Z,18.80
2017-11-24T20:58:18.341Z,40.43
2017-11-24T21:00:45.828Z,21.60
2017-11-24T21:03:13.356Z,27.47
2017-11-24T21:05:40.876Z,19.80
2017-11-24T21:08:08.381Z,25.10
2017-11-24T21:10:35.916Z,23.23
2017-11-24T21:13:03.424Z,26.67
2017-11-24T21:15:30.954Z,24.73
2017-11-24T21:17:58.458Z,26.40
2017-11-24T21:20:25.971Z,25.80
2017-11-24T21:22:53.505Z,21.50
2017-11-24T21:25:21.077Z,25.77
2017-11-24T21:27:48.572Z,27.57
2017-11-24T21:30:16.070Z,27.10
2017-11-24T21:32:43.695Z,30.20
2017-11-24T21:35:11.200Z,27.13
2017-11-24T21:37:38.715Z,25.10
2017-11-24T21:40:06.268Z,28.10
2017-11-24T21:42:33.770Z,26.60
2017-11-24T21:45:01.293Z,25.33
2017-11-24T21:47:28.828Z,22.10
2017-11-24T21:49:56.366Z,24.33
2017-11-24T21:52:23.923Z,22.40
2017-11-24T21:54:51.456Z,25.43
2017-11-24T21:57:18.968Z,32.03
2017-11-24T21:59:46.483Z,24.97
2017-11-24T22:02:14.084Z,24.97
2017-11-24T22:04:41.576Z,25.43
2017-11-24T22:07:09.071Z,26.40
2017-11-24T22:09:36.634Z,29.50
2017-11-24T22:12:04.129Z,28.80
2017-11-24T22:14:31.697Z,27.93
2017-11-24T22:16:59.212Z,28.00
2017-11-24T22:19:26.702Z,28.30
2017-11-24T22:21:54.330Z,71.83
2017-11-24T22:24:21.817Z,32.17
2017-11-24T22:26:49.314Z,30.27
2017-11-24T22:29:16.829Z,28.77
2017-11-24T22:31:44.373Z,37.50
2017-11-24T22:34:11.865Z,24.07
2017-11-24T22:36:39.399Z,32.03
2017-11-24T22:39:06.937Z,35.03
2017-11-24T22:41:34.433Z,23.07
2017-11-24T22:44:01.926Z,23.23
2017-11-24T22:46:29.438Z,33.13
2017-11-24T22:48:56.966Z,30.70
2017-11-24T22:51:24.518Z,25.67
2017-11-24T22:53:52.013Z,26.33
2017-11-24T22:56:19.538Z,20.87
2017-11-24T22:58:47.079Z,22.10
2017-11-24T23:01:14.626Z,30.83
2017-11-24T23:03:42.225Z,34.57
2017-11-24T23:06:09.737Z,21.63
2017-11-24T23:08:37.230Z,23.47
2017-11-24T23:11:04.877Z,19.80
2017-11-24T23:13:32.377Z,22.00
2017-11-24T23:15:59.875Z,27.40
2017-11-24T23:18:27.425Z,30.77
2017-11-24T23:20:55.037Z,25.50
2017-11-24T23:23:22.525Z,22.70
2017-11-24T23:25:50.040Z,27.57
2017-11-24T23:28:17.607Z,26.60
2017-11-24T23:30:45.101Z,29.10
2017-11-24T23:33:12.736Z,22.40
2017-11-24T23:35:40.290Z,20.13
2017-11-24T23:38:07.825Z,20.80
2017-11-24T23:40:35.325Z,22.77
2017-11-24T23:43:02.868Z,22.67
2017-11-24T23:45:30.371Z,23.47
2017-11-24T23:47:57.864Z,26.50
2017-11-24T23:50:25.392Z,23.73
2017-11-24T23:52:52.885Z,28.67
2017-11-24T23:55:20.382Z,21.33
2017-11-24T23:57:47.909Z,23.40
